Time;durP1;ratioP1;P1;durP2;ratioP2;P2;SDS_P1;SDS_P2;PMS_P1;PMS_P2;Temp;Humidity;BMP_temperature;BMP_pressure;BME280_temperature;BME280_humidity;BME280_pressure;Samples;Min_cycle;Max_cycle;Signal;HPM_P1;HPM_P2
2021/05/09 00:00:47;;;;;;;1.85;1.48;;;18.20;53.20;;;;;;5055174;28;20544;-65
2021/05/09 00:03:13;;;;;;;1.48;1.38;;;18.20;53.10;;;;;;5054933;28;20194;-63
2021/05/09 00:05:38;;;;;;;1.50;1.33;;;18.20;53.10;;;;;;5055279;28;20177;-64
2021/05/09 00:08:04;;;;;;;1.70;1.40;;;18.20;53.10;;;;;;5055420;28;20518;-65
2021/05/09 00:10:29;;;;;;;2.92;1.70;;;18.20;53.10;;;;;;5054806;28;20175;-64
2021/05/09 00:12:55;;;;;;;1.95;1.80;;;18.20;53.10;;;;;;5055134;28;20175;-63
2021/05/09 00:15:23;;;;;;;1.50;1.40;;;18.20;53.20;;;;;;5055642;28;20645;-63
2021/05/09 00:17:48;;;;;;;1.30;1.20;;;18.10;53.10;;;;;;5054582;28;20186;-63
2021/05/09 00:20:14;;;;;;;1.70;1.40;;;18.10;53.10;;;;;;5055122;28;20246;-64
2021/05/09 00:22:39;;;;;;;2.15;1.30;;;18.20;53.20;;;;;;5055048;28;20210;-64
2021/05/09 00:25:05;;;;;;;2.47;1.38;;;18.10;53.20;;;;;;5054357;28;20171;-63
2021/05/09 00:27:31;;;;;;;2.33;1.40;;;18.10;53.10;;;;;;5054744;28;20621;-62
2021/05/09 00:29:56;;;;;;;1.38;1.27;;;18.10;53.20;;;;;;5055383;28;20171;-62
2021/05/09 00:32:22;;;;;;;1.58;1.42;;;18.10;53.10;;;;;;5054336;28;20197;-63
2021/05/09 00:34:47;;;;;;;1.00;1.00;;;18.10;53.10;;;;;;5054898;28;20629;-64
2021/05/09 00:37:13;;;;;;;1.42;1.33;;;18.10;53.20;;;;;;5055146;28;20179;-65
2021/05/09 00:39:38;;;;;;;2.72;1.55;;;18.10;53.20;;;;;;5054025;28;20175;-64
2021/05/09 00:42:05;;;;;;;2.15;1.30;;;18.10;53.20;;;;;;5054736;28;20618;-65
2021/05/09 00:44:30;;;;;;;1.73;1.60;;;18.00;53.10;;;;;;5054913;28;20190;-64
2021/05/09 00:46:56;;;;;;;2.08;1.60;;;18.00;53.10;;;;;;5054082;28;20175;-65
2021/05/09 00:49:22;;;;;;;1.48;1.33;;;18.00;53.10;;;;;;5053968;28;20175;-64
2021/05/09 00:51:47;;;;;;;1.40;1.30;;;18.00;53.10;;;;;;5036729;28;20175;-63
2021/05/09 00:54:15;;;;;;;2.88;1.40;;;18.00;53.10;;;;;;5053840;28;20175;-64
2021/05/09 00:56:40;;;;;;;1.15;1.15;;;18.10;53.20;;;;;;5054557;28;20179;-63
2021/05/09 00:59:06;;;;;;;1.67;1.40;;;18.00;53.10;;;;;;5036956;28;20174;-63
2021/05/09 01:01:31;;;;;;;1.75;1.30;;;18.00;53.10;;;;;;5035564;28;20309;-63
2021/05/09 01:03:57;;;;;;;1.77;1.10;;;18.00;53.10;;;;;;5036846;28;20625;-64
2021/05/09 01:06:22;;;;;;;1.60;1.50;;;18.00;53.20;;;;;;5036282;28;20194;-65
2021/05/09 01:08:48;;;;;;;1.42;1.33;;;18.00;53.20;;;;;;5036168;28;20172;-64
2021/05/09 01:11:13;;;;;;;1.90;1.33;;;18.00;53.20;;;;;;5036883;28;20528;-64
2021/05/09 01:13:39;;;;;;;1.92;1.60;;;18.00;53.20;;;;;;5053629;28;20262;-62
2021/05/09 01:16:05;;;;;;;1.42;1.33;;;18.00;53.20;;;;;;5054431;28;20181;-63
2021/05/09 01:18:30;;;;;;;1.25;1.15;;;18.00;53.30;;;;;;5054064;28;20567;-64
2021/05/09 01:20:56;;;;;;;1.35;1.25;;;18.00;53.30;;;;;;5053040;28;20669;-64
2021/05/09 01:23:21;;;;;;;1.50;1.40;;;18.00;53.30;;;;;;5053999;28;20528;-64
2021/05/09 01:25:47;;;;;;;1.55;1.27;;;17.90;53.20;;;;;;5053695;28;20184;-63
2021/05/09 01:28:12;;;;;;;1.30;1.08;;;17.90;53.30;;;;;;5035497;28;20168;-63
2021/05/09 01:30:38;;;;;;;1.73;1.40;;;17.90;53.30;;;;;;5053914;28;20171;-62
2021/05/09 01:33:04;;;;;;;1.20;1.10;;;17.90;53.30;;;;;;5054032;28;20177;-63
2021/05/09 01:35:29;;;;;;;1.20;1.10;;;17.90;53.30;;;;;;5053220;28;20182;-63
2021/05/09 01:37:55;;;;;;;1.75;1.40;;;17.90;53.30;;;;;;5053738;28;20179;-63
2021/05/09 01:40:20;;;;;;;1.45;1.30;;;17.90;53.20;;;;;;5054098;28;20179;-65
2021/05/09 01:42:46;;;;;;;1.70;1.50;;;17.90;53.30;;;;;;5052910;28;20207;-64
2021/05/09 01:45:12;;;;;;;1.38;1.27;;;17.90;53.30;;;;;;5053759;28;20175;-65
2021/05/09 01:47:37;;;;;;;1.40;1.20;;;17.90;53.30;;;;;;5053539;28;20224;-63
2021/05/09 01:50:11;;;;;;;1.55;1.40;;;17.90;53.30;;;;;;5052941;28;20183;-63
2021/05/09 01:52:37;;;;;;;2.13;1.50;;;17.80;53.30;;;;;;5053284;28;20179;-63
2021/05/09 01:55:04;;;;;;;1.50;1.23;;;17.90;53.30;;;;;;5053620;28;20220;-63
2021/05/09 01:57:30;;;;;;;1.50;1.13;;;17.90;53.30;;;;;;5052637;28;20179;-63
2021/05/09 01:59:58;;;;;;;1.40;1.30;;;17.80;53.30;;;;;;5053247;28;20167;-63
2021/05/09 02:02:23;;;;;;;1.30;1.20;;;17.80;53.30;;;;;;5053412;28;20572;-63
2021/05/09 02:04:49;;;;;;;1.90;1.35;;;17.80;53.30;;;;;;5052408;28;20167;-64
2021/05/09 02:07:14;;;;;;;1.88;1.30;;;17.80;53.30;;;;;;5053277;28;20182;-64
2021/05/09 02:09:40;;;;;;;1.60;1.35;;;17.80;53.30;;;;;;5052604;28;20564;-64
2021/05/09 02:12:05;;;;;;;1.65;1.55;;;17.80;53.40;;;;;;5053075;28;20225;-63
2021/05/09 02:14:31;;;;;;;1.27;1.17;;;17.80;53.40;;;;;;5053272;28;20257;-63
2021/05/09 02:16:56;;;;;;;1.35;1.23;;;17.80;53.30;;;;;;5052467;28;20625;-63
2021/05/09 02:19:22;;;;;;;1.40;1.30;;;17.80;53.40;;;;;;5053069;28;20182;-63
2021/05/09 02:21:47;;;;;;;1.20;1.10;;;17.80;53.40;;;;;;5052499;28;20276;-63
2021/05/09 02:24:13;;;;;;;1.30;1.20;;;17.80;53.40;;;;;;5052333;28;20175;-64
2021/05/09 02:26:38;;;;;;;1.48;1.35;;;17.80;53.40;;;;;;5052933;28;20171;-63
2021/05/09 02:29:04;;;;;;;1.27;1.20;;;17.70;53.40;;;;;;5052880;28;20171;-62
2021/05/09 02:31:29;;;;;;;1.17;1.08;;;17.80;53.40;;;;;;5052202;28;20178;-62
2021/05/09 02:33:55;;;;;;;1.45;1.35;;;17.80;53.40;;;;;;5052823;28;20182;-63
2021/05/09 02:36:20;;;;;;;1.90;1.50;;;17.80;53.40;;;;;;5052853;28;20178;-64
2021/05/09 02:38:46;;;;;;;1.38;1.27;;;17.70;54.00;;;;;;5051936;28;20190;-64
2021/05/09 02:41:11;;;;;;;1.25;1.15;;;17.70;53.40;;;;;;5052813;28;20292;-64
2021/05/09 02:43:37;;;;;;;1.70;1.50;;;17.70;53.40;;;;;;5052750;28;20175;-64
2021/05/09 02:46:02;;;;;;;1.30;1.20;;;17.70;53.40;;;;;;5052287;28;20213;-64
2021/05/09 02:48:30;;;;;;;1.35;1.25;;;17.70;53.40;;;;;;5052841;28;20173;-63
2021/05/09 02:50:55;;;;;;;1.05;1.05;;;17.70;53.40;;;;;;5052692;28;20186;-63
2021/05/09 02:53:21;;;;;;;1.40;1.30;;;17.70;53.40;;;;;;5051879;28;20174;-63
2021/05/09 02:55:46;;;;;;;1.33;1.10;;;17.70;53.40;;;;;;5052427;28;20504;-63
2021/05/09 02:58:12;;;;;;;1.23;1.13;;;17.70;53.40;;;;;;5052646;28;20183;-62
2021/05/09 03:00:37;;;;;;;1.38;1.27;;;17.70;53.40;;;;;;5051617;28;20175;-64
2021/05/09 03:03:03;;;;;;;1.08;1.08;;;17.70;53.50;;;;;;5052553;28;20201;-62
2021/05/09 03:05:28;;;;;;;1.55;1.38;;;17.60;53.40;;;;;;5052517;28;20163;-64
2021/05/09 03:07:54;;;;;;;1.45;1.35;;;17.70;54.10;;;;;;5051630;28;20186;-63
2021/05/09 03:10:19;;;;;;;1.38;1.27;;;17.60;53.40;;;;;;5052491;28;20630;-64
2021/05/09 03:12:45;;;;;;;1.23;1.13;;;17.60;53.40;;;;;;5055306;28;20265;-62
2021/05/09 03:15:11;;;;;;;1.40;1.30;;;17.60;53.40;;;;;;5055826;28;20661;-62
2021/05/09 03:17:36;;;;;;;1.50;1.40;;;17.70;53.50;;;;;;5056188;28;20179;-63
2021/05/09 03:20:02;;;;;;;1.40;1.30;;;17.60;53.40;;;;;;5055698;28;20190;-63
2021/05/09 03:22:28;;;;;;;1.30;1.20;;;17.60;53.40;;;;;;5056542;28;20215;-63
2021/05/09 03:24:53;;;;;;;1.20;1.10;;;17.60;53.40;;;;;;5055905;28;20175;-63
2021/05/09 03:27:19;;;;;;;1.27;1.17;;;17.60;53.40;;;;;;5055700;28;20179;-62
2021/05/09 03:29:45;;;;;;;1.40;1.30;;;17.60;53.40;;;;;;5056216;28;20175;-62
2021/05/09 03:32:10;;;;;;;1.40;1.30;;;17.60;53.40;;;;;;5056347;28;20263;-62
2021/05/09 03:34:35;;;;;;;1.27;1.17;;;17.60;53.40;;;;;;5055149;28;20632;-63
2021/05/09 03:37:01;;;;;;;1.70;1.50;;;17.60;53.40;;;;;;5056139;28;20175;-64
2021/05/09 03:39:26;;;;;;;1.40;1.30;;;17.60;53.40;;;;;;5056318;28;20204;-64
2021/05/09 03:41:52;;;;;;;1.52;1.42;;;17.60;53.40;;;;;;5054928;28;20614;-65
2021/05/09 03:44:17;;;;;;;1.35;1.25;;;17.60;53.40;;;;;;5056055;28;20217;-64
2021/05/09 03:46:43;;;;;;;1.77;1.50;;;17.60;53.40;;;;;;5055726;28;20175;-64
2021/05/09 03:49:08;;;;;;;1.30;1.20;;;17.60;53.40;;;;;;5055239;28;20164;-63
2021/05/09 03:51:34;;;;;;;1.52;1.40;;;17.60;53.40;;;;;;5055534;28;20555;-63
2021/05/09 03:53:59;;;;;;;1.60;1.50;;;17.50;53.40;;;;;;5055907;28;20250;-63
2021/05/09 03:56:25;;;;;;;1.40;1.30;;;17.60;54.10;;;;;;5055136;28;20660;-63
2021/05/09 03:58:50;;;;;;;1.33;1.23;;;17.50;53.40;;;;;;5055614;28;20653;-63
2021/05/09 04:01:16;;;;;;;1.23;1.23;;;17.50;53.40;;;;;;5055806;28;20202;-63
2021/05/09 04:03:41;;;;;;;1.05;1.05;;;17.50;53.40;;;;;;5054737;28;20182;-63
2021/05/09 04:06:07;;;;;;;1.40;1.30;;;17.50;53.40;;;;;;5055475;28;20536;-65
2021/05/09 04:08:32;;;;;;;1.50;1.30;;;17.50;53.40;;;;;;5055427;28;20186;-64
2021/05/09 04:10:59;;;;;;;1.90;1.27;;;17.50;53.40;;;;;;5055158;28;20175;-63
2021/05/09 04:13:25;;;;;;;1.48;1.38;;;17.50;53.40;;;;;;5055595;28;20171;-62
2021/05/09 04:15:50;;;;;;;1.20;1.10;;;17.50;53.40;;;;;;5055203;28;20548;-63
2021/05/09 04:18:16;;;;;;;1.08;1.08;;;17.50;53.40;;;;;;5054739;28;20645;-62
2021/05/09 04:20:41;;;;;;;1.13;1.13;;;17.50;53.40;;;;;;5054537;28;20305;-64
2021/05/09 04:23:13;;;;;;;1.63;1.40;;;17.50;53.40;;;;;;5054075;28;20548;-64
2021/05/09 04:25:39;;;;;;;1.50;1.40;;;17.50;53.40;;;;;;5054467;28;20182;-63
2021/05/09 04:28:04;;;;;;;1.27;1.17;;;17.50;53.40;;;;;;5055177;28;20207;-62
2021/05/09 04:30:30;;;;;;;2.88;1.42;;;17.50;53.50;;;;;;5054468;28;20187;-62
2021/05/09 04:32:59;;;;;;;1.40;1.30;;;17.50;53.50;;;;;;5055264;28;20259;-62
2021/05/09 04:35:25;;;;;;;1.15;1.13;;;17.50;53.40;;;;;;5055004;28;20310;-63
2021/05/09 04:37:51;;;;;;;2.05;1.15;;;17.50;53.50;;;;;;5054145;28;20261;-64
2021/05/09 04:40:16;;;;;;;1.30;1.20;;;17.50;53.40;;;;;;5054991;28;20166;-65
2021/05/09 04:42:42;;;;;;;1.50;1.40;;;17.40;53.40;;;;;;5054728;28;20290;-63
2021/05/09 04:45:08;;;;;;;1.30;1.20;;;17.40;53.40;;;;;;5054099;28;20576;-65
2021/05/09 04:47:33;;;;;;;1.30;1.20;;;17.40;53.40;;;;;;5054459;28;20225;-62
2021/05/09 04:49:59;;;;;;;1.55;1.45;;;17.40;53.40;;;;;;5054724;28;20175;-63
2021/05/09 04:52:24;;;;;;;1.50;1.40;;;17.40;54.00;;;;;;5053966;28;20258;-63
2021/05/09 04:54:50;;;;;;;1.70;1.60;;;17.40;53.40;;;;;;5054607;28;20656;-63
2021/05/09 04:57:15;;;;;;;1.42;1.33;;;17.40;53.50;;;;;;5054984;28;20179;-63
2021/05/09 04:59:41;;;;;;;1.55;1.45;;;17.40;53.40;;;;;;5035880;28;20171;-63
2021/05/09 05:02:06;;;;;;;1.50;1.40;;;17.40;53.40;;;;;;5054424;28;20273;-63
2021/05/09 05:04:32;;;;;;;1.60;1.50;;;17.40;53.40;;;;;;5054145;28;20202;-65
2021/05/09 05:06:57;;;;;;;0.93;0.90;;;17.40;53.50;;;;;;5053951;28;20179;-64
2021/05/09 05:09:23;;;;;;;1.52;1.42;;;17.50;53.50;;;;;;5054613;28;20199;-64
2021/05/09 05:11:48;;;;;;;1.40;1.30;;;17.50;53.50;;;;;;5054118;28;20178;-62
2021/05/09 05:14:14;;;;;;;1.83;1.55;;;17.50;53.40;;;;;;5053895;28;20682;-63
2021/05/09 05:16:39;;;;;;;1.58;1.48;;;17.60;53.50;;;;;;5054153;28;20183;-62
2021/05/09 05:19:05;;;;;;;1.40;1.30;;;17.60;53.40;;;;;;5054137;28;20174;-63
2021/05/09 05:21:30;;;;;;;1.23;1.20;;;17.60;53.40;;;;;;5052956;28;20237;-63
2021/05/09 05:23:57;;;;;;;1.38;1.27;;;17.60;53.40;;;;;;5054112;28;20686;-62
2021/05/09 05:26:22;;;;;;;1.27;1.17;;;17.60;53.40;;;;;;5054210;28;20221;-63
2021/05/09 05:28:48;;;;;;;1.23;1.23;;;17.60;53.40;;;;;;5053068;28;20575;-62
2021/05/09 05:31:14;;;;;;;1.33;1.23;;;17.60;53.40;;;;;;5053937;28;20179;-62
2021/05/09 05:33:39;;;;;;;0.98;0.93;;;17.60;53.40;;;;;;5052792;28;20175;-62
2021/05/09 05:36:05;;;;;;;0.90;0.90;;;17.50;53.40;;;;;;5053720;28;20642;-63
2021/05/09 05:38:30;;;;;;;1.17;1.17;;;17.50;53.40;;;;;;5053755;28;20562;-65
2021/05/09 05:40:56;;;;;;;1.02;1.02;;;17.50;53.40;;;;;;5053214;28;20262;-65
2021/05/09 05:43:23;;;;;;;1.25;1.15;;;17.60;53.40;;;;;;5053828;28;20175;-64
2021/05/09 05:45:50;;;;;;;1.08;1.08;;;17.60;53.40;;;;;;5053338;28;20180;-64
2021/05/09 05:48:15;;;;;;;1.20;1.10;;;17.60;53.40;;;;;;5052836;28;20187;-63
2021/05/09 05:50:40;;;;;;;1.20;1.10;;;17.50;53.40;;;;;;5053504;28;20186;-63
2021/05/09 05:53:06;;;;;;;1.00;1.00;;;17.60;53.50;;;;;;5053573;28;20536;-62
2021/05/09 05:55:31;;;;;;;1.30;1.20;;;17.50;53.50;;;;;;5052626;28;20182;-63
2021/05/09 05:57:57;;;;;;;1.00;1.00;;;17.50;53.50;;;;;;5053519;28;20581;-62
2021/05/09 06:00:22;;;;;;;1.15;1.05;;;17.50;53.50;;;;;;5053452;28;20304;-63
2021/05/09 06:02:48;;;;;;;1.00;1.00;;;17.50;53.40;;;;;;5052330;28;20203;-63
2021/05/09 06:05:14;;;;;;;1.20;1.10;;;17.50;53.40;;;;;;5053249;28;20183;-63
2021/05/09 06:07:39;;;;;;;1.48;1.33;;;17.50;53.40;;;;;;5053210;28;20707;-64
2021/05/09 06:10:05;;;;;;;1.30;1.20;;;17.50;53.40;;;;;;5052814;28;20171;-64
2021/05/09 06:12:31;;;;;;;1.13;1.00;;;17.50;53.40;;;;;;5052930;28;20207;-66
2021/05/09 06:14:57;;;;;;;1.60;1.30;;;17.60;53.50;;;;;;5053326;28;20193;-65
2021/05/09 06:17:22;;;;;;;1.33;1.23;;;17.60;53.30;;;;;;5052287;28;20214;-65
2021/05/09 06:19:47;;;;;;;1.98;1.20;;;17.70;53.40;;;;;;5052989;28;20618;-67
2021/05/09 06:22:13;;;;;;;1.20;1.10;;;17.70;53.50;;;;;;5035091;28;20234;-68
2021/05/09 06:24:38;;;;;;;3.75;1.85;;;17.70;53.40;;;;;;5052221;28;20175;-66
2021/05/09 06:27:04;;;;;;;1.83;1.17;;;17.70;53.80;;;;;;5052978;28;20183;-66
2021/05/09 06:29:30;;;;;;;3.33;1.30;;;17.70;53.60;;;;;;5052975;28;20209;-66
2021/05/09 06:31:55;;;;;;;1.60;1.48;;;17.70;53.70;;;;;;5052213;28;20178;-66
2021/05/09 06:34:21;;;;;;;2.55;1.45;;;17.80;53.80;;;;;;5052932;28;20202;-67
2021/05/09 06:36:46;;;;;;;2.85;1.60;;;17.70;53.70;;;;;;5052620;28;20225;-67
2021/05/09 06:39:12;;;;;;;2.40;1.60;;;17.70;53.70;;;;;;5052540;28;20304;-67
2021/05/09 06:41:38;;;;;;;1.90;1.60;;;17.80;53.80;;;;;;5052920;28;20207;-64
2021/05/09 06:44:07;;;;;;;1.98;1.63;;;17.80;53.70;;;;;;5052291;28;20213;-67
2021/05/09 06:46:32;;;;;;;2.70;1.55;;;17.80;54.00;;;;;;5051736;28;20229;-68
2021/05/09 06:48:58;;;;;;;3.75;1.67;;;17.90;54.10;;;;;;5052730;28;20176;-67
2021/05/09 06:51:23;;;;;;;4.95;1.85;;;17.90;54.00;;;;;;5051855;28;20171;-68
2021/05/09 06:53:49;;;;;;;3.63;1.90;;;18.00;53.90;;;;;;5034649;28;20549;-67
2021/05/09 06:56:14;;;;;;;4.13;1.88;;;18.00;53.90;;;;;;5051609;28;20247;-67
2021/05/09 06:58:41;;;;;;;5.18;1.92;;;18.00;53.80;;;;;;5033519;28;20587;-67
2021/05/09 07:01:06;;;;;;;4.03;1.85;;;18.00;53.90;;;;;;5052254;28;20175;-69
2021/05/09 07:03:32;;;;;;;3.58;1.80;;;18.10;54.00;;;;;;5052116;28;20562;-68
2021/05/09 07:05:58;;;;;;;3.88;1.73;;;18.10;54.10;;;;;;5048979;28;20164;-68
2021/05/09 07:08:24;;;;;;;1.45;1.27;;;18.10;54.10;;;;;;5052452;28;20233;-67
2021/05/09 07:10:50;;;;;;;2.95;1.88;;;18.10;54.20;;;;;;5051869;28;20175;-67
2021/05/09 07:13:15;;;;;;;2.38;1.45;;;18.10;54.30;;;;;;5051033;28;20248;-67
2021/05/09 07:15:42;;;;;;;3.40;1.92;;;18.10;54.30;;;;;;5048911;28;20163;-68
2021/05/09 07:18:17;;;;;;;2.25;1.45;;;18.10;54.40;;;;;;5052715;28;20203;-67
2021/05/09 07:20:50;;;;;;;1.95;1.48;;;18.10;54.50;;;;;;5051439;28;20187;-68
2021/05/09 07:23:16;;;;;;;3.08;1.77;;;18.10;54.80;;;;;;5052685;28;20668;-66
2021/05/09 07:25:42;;;;;;;2.80;1.48;;;18.20;54.60;;;;;;5052368;28;20164;-66
2021/05/09 07:28:14;;;;;;;3.45;1.80;;;18.20;55.00;;;;;;5051613;28;20175;-66
2021/05/09 07:30:40;;;;;;;2.13;1.63;;;18.20;55.10;;;;;;5052598;28;20171;-68
2021/05/09 07:33:07;;;;;;;3.30;1.80;;;18.20;55.20;;;;;;5052903;28;20254;-68
2021/05/09 07:35:33;;;;;;;4.97;2.00;;;18.20;55.10;;;;;;5051314;28;20649;-68
2021/05/09 07:38:05;;;;;;;5.78;2.25;;;18.30;55.10;;;;;;5052648;28;20207;-67
2021/05/09 07:40:31;;;;;;;2.03;1.83;;;18.30;55.00;;;;;;5051143;28;20649;-69
2021/05/09 07:42:56;;;;;;;4.78;1.70;;;18.30;54.90;;;;;;5052474;28;20215;-67
2021/05/09 07:45:23;;;;;;;2.50;1.65;;;18.30;54.80;;;;;;5052386;28;20629;-67
2021/05/09 07:47:49;;;;;;;2.85;1.80;;;18.30;54.70;;;;;;5050710;28;20206;-67
2021/05/09 07:50:15;;;;;;;2.20;1.70;;;18.20;54.80;;;;;;5052663;28;20255;-68
2021/05/09 07:52:44;;;;;;;3.95;1.67;;;18.20;55.00;;;;;;5052279;28;20172;-67
2021/05/09 07:55:10;;;;;;;3.17;1.90;;;18.20;55.00;;;;;;5034421;28;20179;-67
2021/05/09 07:57:36;;;;;;;2.55;1.73;;;18.20;54.90;;;;;;5053305;28;20178;-67
2021/05/09 08:00:07;;;;;;;2.25;1.60;;;18.20;54.90;;;;;;5056126;28;20179;-68
2021/05/09 08:02:32;;;;;;;3.13;2.00;;;18.30;55.00;;;;;;5054906;28;20246;-68
2021/05/09 08:04:58;;;;;;;1.95;1.55;;;18.30;54.90;;;;;;5055491;28;20600;-71
2021/05/09 08:07:23;;;;;;;3.95;1.75;;;18.40;54.70;;;;;;5055803;28;20175;-71
2021/05/09 08:09:49;;;;;;;4.07;1.48;;;18.40;54.70;;;;;;5054295;28;20174;-69
2021/05/09 08:12:14;;;;;;;3.42;1.85;;;18.40;54.60;;;;;;5055862;28;20179;-69
2021/05/09 08:14:40;;;;;;;2.55;1.70;;;18.40;54.60;;;;;;5055298;28;20175;-69
2021/05/09 08:17:05;;;;;;;2.55;1.50;;;18.50;54.70;;;;;;5054938;28;20645;-70
2021/05/09 08:19:31;;;;;;;1.83;1.38;;;18.50;54.70;;;;;;5055397;28;20211;-70
2021/05/09 08:21:56;;;;;;;3.72;1.52;;;18.50;54.70;;;;;;5055145;28;20314;-68
2021/05/09 08:24:22;;;;;;;2.25;1.45;;;18.50;54.60;;;;;;5054834;28;20195;-68
2021/05/09 08:26:47;;;;;;;2.03;1.65;;;18.60;54.60;;;;;;5055357;28;20532;-67
2021/05/09 08:29:13;;;;;;;2.67;1.60;;;18.60;54.60;;;;;;5055208;28;20218;-75
2021/05/09 08:31:38;;;;;;;3.55;1.63;;;18.60;54.60;;;;;;5054257;28;20714;-64
2021/05/09 08:34:04;;;;;;;2.33;1.40;;;18.60;54.60;;;;;;5055027;28;20637;-63
2021/05/09 08:36:29;;;;;;;2.35;1.42;;;18.60;54.80;;;;;;5054819;28;20175;-72
2021/05/09 08:38:55;;;;;;;1.70;1.25;;;18.60;54.90;;;;;;5053977;28;20541;-72
2021/05/09 08:41:21;;;;;;;2.63;1.60;;;18.50;54.80;;;;;;5054928;28;20207;-71
2021/05/09 08:43:47;;;;;;;2.40;1.50;;;18.50;54.80;;;;;;5053727;28;20671;-71
2021/05/09 08:46:12;;;;;;;3.95;1.35;;;18.60;54.70;;;;;;5054916;28;20167;-71
2021/05/09 08:48:38;;;;;;;2.45;1.70;;;18.70;54.70;;;;;;5020222;28;20220;-70
2021/05/09 08:51:04;;;;;;;3.50;1.73;;;18.70;54.70;;;;;;5019743;28;20202;-71
2021/05/09 08:53:30;;;;;;;2.47;1.58;;;18.70;54.70;;;;;;5054442;28;20179;-71
2021/05/09 08:55:55;;;;;;;2.75;1.48;;;18.80;54.60;;;;;;5036868;28;20173;-73
2021/05/09 08:58:21;;;;;;;2.40;1.45;;;18.70;54.70;;;;;;5053629;28;20193;-76
2021/05/09 09:00:46;;;;;;;3.63;1.80;;;18.60;54.80;;;;;;5052383;28;20179;-74
2021/05/09 09:03:13;;;;;;;1.98;1.40;;;18.70;54.80;;;;;;5036644;28;20727;-79
2021/05/09 09:05:44;;;;;;;1.77;1.42;;;18.70;54.70;;;;;;5053369;28;20175;-76
2021/05/09 09:08:10;;;;;;;1.30;1.20;;;18.70;54.80;;;;;;5053564;28;20164;-69
2021/05/09 09:10:43;;;;;;;3.70;1.80;;;18.70;54.70;;;;;;5052493;28;20250;-72
2021/05/09 09:13:31;;;;;;;2.42;1.70;;;18.80;54.80;;;;;;5052966;28;20183;-74
2021/05/09 09:16:06;;;;;;;1.70;1.60;;;18.80;54.70;;;;;;5054019;28;20185;-74
2021/05/09 09:18:38;;;;;;;2.08;1.45;;;18.90;54.70;;;;;;5053637;28;20179;-72
2021/05/09 09:21:29;;;;;;;2.00;1.38;;;18.90;54.60;;;;;;5052859;28;20696;-76
2021/05/09 09:24:00;;;;;;;2.05;1.48;;;18.90;54.60;;;;;;5053853;28;20181;-74
2021/05/09 09:26:26;;;;;;;3.92;1.58;;;18.90;54.60;;;;;;5053218;28;20190;-74
2021/05/09 09:28:51;;;;;;;4.72;1.70;;;18.90;54.80;;;;;;5053741;28;20175;-71
2021/05/09 09:31:20;;;;;;;2.33;1.40;;;18.80;54.80;;;;;;5053676;28;20514;-72
2021/05/09 09:33:51;;;;;;;4.13;1.77;;;18.90;54.90;;;;;;5034991;28;20230;-69
2021/05/09 09:36:20;;;;;;;4.55;1.77;;;18.90;54.80;;;;;;5053758;28;20174;-72
2021/05/09 09:38:49;;;;;;;3.33;1.63;;;19.00;54.80;;;;;;5053509;28;20211;-69
2021/05/09 09:41:16;;;;;;;3.75;1.55;;;19.00;54.90;;;;;;5052960;28;20286;-72
2021/05/09 09:43:59;;;;;;;6.68;1.52;;;19.00;54.90;;;;;;5053280;28;20189;-70
2021/05/09 09:46:29;;;;;;;2.63;1.40;;;19.10;54.90;;;;;;5053691;28;20183;-70
2021/05/09 09:48:54;;;;;;;2.20;1.40;;;19.00;54.90;;;;;;5052611;28;20179;-73
2021/05/09 09:51:20;;;;;;;4.82;1.85;;;19.00;55.00;;;;;;5053735;28;20167;-71
2021/05/09 09:53:45;;;;;;;5.20;2.20;;;19.00;54.90;;;;;;5053157;28;20258;-73
2021/05/09 09:56:24;;;;;;;3.95;1.95;;;19.00;55.00;;;;;;5052666;28;20175;-74
2021/05/09 09:59:02;;;;;;;4.45;2.08;;;18.90;55.00;;;;;;5053350;28;20254;-77
2021/05/09 10:01:31;;;;;;;4.55;2.28;;;18.90;55.00;;;;;;5052704;28;20227;-72
2021/05/09 10:04:00;;;;;;;3.50;1.77;;;18.80;55.10;;;;;;5053498;28;20202;-72
2021/05/09 10:06:26;;;;;;;3.58;1.80;;;18.90;55.20;;;;;;5053228;28;20266;-71
2021/05/09 10:08:52;;;;;;;4.13;1.70;;;18.90;55.10;;;;;;5052048;28;20254;-72
2021/05/09 10:11:18;;;;;;;3.42;1.58;;;18.90;55.10;;;;;;5053397;28;20258;-73
2021/05/09 10:13:45;;;;;;;3.33;1.80;;;18.90;55.10;;;;;;5052579;28;20175;-75
2021/05/09 10:16:11;;;;;;;4.20;1.70;;;18.90;55.10;;;;;;5035087;28;20171;-73
2021/05/09 10:18:44;;;;;;;4.95;1.73;;;18.90;55.00;;;;;;5052201;28;20185;-72
2021/05/09 10:21:10;;;;;;;4.68;1.98;;;18.90;55.10;;;;;;5052866;28;20242;-73
2021/05/09 10:23:35;;;;;;;2.53;1.70;;;18.90;55.00;;;;;;5034808;28;20214;-73
2021/05/09 10:26:01;;;;;;;3.45;1.98;;;18.90;54.90;;;;;;5053641;28;20199;-73
2021/05/09 10:28:37;;;;;;;2.58;1.73;;;19.00;54.90;;;;;;5054169;28;20224;-74
2021/05/09 10:31:03;;;;;;;1.83;1.70;;;19.00;54.90;;;;;;5036529;28;20629;-76
2021/05/09 10:33:38;;;;;;;5.07;1.63;;;19.00;54.70;;;;;;5053046;28;20179;-73
2021/05/09 10:36:04;;;;;;;2.92;1.92;;;19.10;54.70;;;;;;5053890;28;20178;-73
2021/05/09 10:38:29;;;;;;;3.78;1.92;;;19.10;54.60;;;;;;5053263;28;20175;-72
2021/05/09 10:41:11;;;;;;;3.05;2.05;;;19.00;54.70;;;;;;5052875;28;20189;-73
2021/05/09 10:43:37;;;;;;;3.20;1.70;;;19.10;54.60;;;;;;5052149;28;20186;-74
2021/05/09 10:46:03;;;;;;;2.22;1.65;;;19.10;54.60;;;;;;5053492;28;20220;-72
2021/05/09 10:51:03;;;;;;;3.72;1.83;;;19.20;54.40;;;;;;5051456;28;20538;-73
2021/05/09 10:53:38;;;;;;;2.25;1.63;;;19.20;54.40;;;;;;5052415;28;20712;-73
2021/05/09 10:56:10;;;;;;;2.65;1.90;;;19.20;54.40;;;;;;5052610;28;20189;-74
2021/05/09 10:58:45;;;;;;;3.83;2.00;;;19.30;54.50;;;;;;5051348;28;20625;-73
2021/05/09 11:01:18;;;;;;;2.92;2.10;;;19.20;54.50;;;;;;5052430;28;20232;-73
2021/05/09 11:03:43;;;;;;;3.78;1.80;;;19.20;54.60;;;;;;5034343;28;20641;-72
2021/05/09 11:06:08;;;;;;;2.40;1.67;;;19.10;54.70;;;;;;5052821;28;20178;-71
2021/05/09 11:08:52;;;;;;;3.20;1.52;;;19.10;54.70;;;;;;5052825;28;20633;-72
2021/05/09 11:11:30;;;;;;;3.03;1.90;;;19.10;54.80;;;;;;5051868;28;20174;-75
2021/05/09 11:16:30;;;;;;;4.75;2.10;;;19.00;55.00;;;;;;5052694;28;20637;-85
2021/05/09 11:18:59;;;;;;;3.00;1.90;;;19.00;56.30;;;;;;5051964;28;20187;-77
2021/05/09 11:21:25;;;;;;;3.80;2.13;;;19.10;56.30;;;;;;5052234;28;20231;-70
2021/05/09 11:23:51;;;;;;;2.90;2.03;;;19.10;56.70;;;;;;5052111;28;20175;-69
2021/05/09 11:26:44;;;;;;;3.45;2.60;;;19.10;57.40;;;;;;5051695;28;20718;-69
2021/05/09 11:29:10;;;;;;;2.65;2.33;;;19.20;57.10;;;;;;5031614;28;20188;-70
2021/05/09 11:31:37;;;;;;;7.43;3.05;;;19.20;57.30;;;;;;5051769;28;20237;-69
2021/05/09 11:34:03;;;;;;;3.90;2.55;;;19.20;57.70;;;;;;5054923;28;20586;-72
2021/05/09 11:36:30;;;;;;;3.65;2.03;;;19.20;57.60;;;;;;5056343;28;20178;-71
2021/05/09 11:39:08;;;;;;;5.50;2.70;;;19.20;58.00;;;;;;5056346;28;20224;-70
2021/05/09 11:41:52;;;;;;;3.70;2.60;;;19.20;58.00;;;;;;5055399;28;20292;-70
2021/05/09 11:44:18;;;;;;;5.05;3.05;;;19.30;58.70;;;;;;5055941;28;20171;-71
2021/05/09 11:46:43;;;;;;;6.07;2.70;;;19.20;59.00;;;;;;5054930;28;20171;-72
2021/05/09 11:49:24;;;;;;;2.80;2.50;;;19.20;59.00;;;;;;5056436;28;20179;-71
2021/05/09 11:51:54;;;;;;;3.05;2.60;;;19.20;58.60;;;;;;5056196;28;20183;-71
2021/05/09 11:54:21;;;;;;;4.28;2.60;;;19.20;58.60;;;;;;5055530;28;20175;-71
2021/05/09 11:56:59;;;;;;;4.65;2.58;;;19.20;59.10;;;;;;5053724;28;20179;-69
2021/05/09 11:59:43;;;;;;;4.65;3.38;;;19.20;59.20;;;;;;5055889;28;20256;-70
2021/05/09 12:02:21;;;;;;;3.53;2.50;;;19.20;59.80;;;;;;5055551;28;20202;-72
2021/05/09 12:04:56;;;;;;;4.55;2.35;;;19.10;59.70;;;;;;5055515;28;20191;-71
2021/05/09 12:07:29;;;;;;;3.40;2.50;;;19.10;59.40;;;;;;5058324;28;20182;-67
2021/05/09 12:10:07;;;;;;;3.97;2.50;;;19.10;59.50;;;;;;5059549;28;20171;-74
2021/05/09 12:12:34;;;;;;;5.80;2.80;;;19.10;59.40;;;;;;5055122;28;20691;-73
2021/05/09 12:15:06;;;;;;;5.38;3.25;;;19.10;59.40;;;;;;5036702;28;20179;-72
2021/05/09 12:17:32;;;;;;;2.60;2.40;;;19.20;59.40;;;;;;5054910;28;20258;-74
2021/05/09 12:19:57;;;;;;;2.50;2.30;;;19.20;59.40;;;;;;5055473;28;20257;-74
2021/05/09 12:22:23;;;;;;;2.60;2.40;;;19.20;59.50;;;;;;5054072;28;20277;-75
2021/05/09 12:24:56;;;;;;;2.95;2.17;;;19.20;59.30;;;;;;5055184;28;20498;-73
2021/05/09 12:27:25;;;;;;;2.72;2.17;;;19.20;59.60;;;;;;5055096;28;20214;-73
2021/05/09 12:29:55;;;;;;;3.80;2.80;;;19.20;59.50;;;;;;5054040;28;20180;-74
2021/05/09 12:32:35;;;;;;;3.67;2.70;;;19.20;59.80;;;;;;5055142;28;20179;-76
2021/05/09 12:35:05;;;;;;;3.22;2.17;;;19.20;60.00;;;;;;5055423;28;20160;-72
2021/05/09 12:37:31;;;;;;;2.63;2.33;;;19.20;59.60;;;;;;5053898;28;20174;-71
2021/05/09 12:40:26;;;;;;;2.50;2.22;;;19.20;59.80;;;;;;5054693;28;20568;-73
2021/05/09 12:43:01;;;;;;;3.30;2.97;;;19.30;60.00;;;;;;5053887;28;20214;-77
2021/05/09 12:45:38;;;;;;;2.88;2.38;;;19.30;60.60;;;;;;5054020;28;20190;-80
2021/05/09 12:48:10;;;;;;;3.22;2.50;;;19.30;59.80;;;;;;5054640;28;20189;-76
2021/05/09 12:51:04;;;;;;;2.63;2.42;;;19.30;59.70;;;;;;5054049;28;20171;-75
2021/05/09 12:53:46;;;;;;;3.58;3.13;;;19.20;59.50;;;;;;5054920;28;20256;-73